createdAt,value
2018-06-15T00:01:35.690Z,12.45
2018-06-15T00:04:11.029Z,12.47
2018-06-15T00:06:44.340Z,14.78
2018-06-15T00:09:17.712Z,12.85
2018-06-15T00:11:51.440Z,13.48
2018-06-15T00:14:24.813Z,13.03
2018-06-15T00:16:58.165Z,12.53
2018-06-15T00:19:31.515Z,11.97
2018-06-15T00:22:04.846Z,12.30
2018-06-15T00:24:38.203Z,13.20
2018-06-15T00:27:11.561Z,14.40
2018-06-15T00:29:44.893Z,12.73
2018-06-15T00:32:18.196Z,14.65
2018-06-15T00:34:51.530Z,15.15
2018-06-15T00:37:24.827Z,15.13
2018-06-15T00:39:58.176Z,12.75
2018-06-15T00:42:31.504Z,16.27
2018-06-15T00:45:04.853Z,14.15
2018-06-15T00:47:38.150Z,14.38
2018-06-15T00:50:11.484Z,13.45
2018-06-15T00:52:44.778Z,14.13
2018-06-15T00:55:18.113Z,16.95
2018-06-15T00:57:51.452Z,16.52
2018-06-15T01:00:24.806Z,18.55
2018-06-15T01:02:58.180Z,14.73
2018-06-15T01:05:31.536Z,15.35
2018-06-15T01:08:04.976Z,14.85
2018-06-15T01:10:38.309Z,14.20
2018-06-15T01:13:11.631Z,14.20
2018-06-15T01:15:45.051Z,15.20
2018-06-15T01:18:18.424Z,15.40
2018-06-15T01:20:51.856Z,15.23
2018-06-15T01:23:25.229Z,15.93
2018-06-15T01:25:58.557Z,17.77
2018-06-15T01:28:32.030Z,19.05
2018-06-15T01:31:05.361Z,19.87
2018-06-15T01:33:38.698Z,19.65
2018-06-15T01:36:12.176Z,16.50
2018-06-15T01:38:45.516Z,16.27
2018-06-15T01:41:18.828Z,24.95
2018-06-15T01:43:52.209Z,17.98
2018-06-15T01:46:25.587Z,18.07
2018-06-15T01:48:58.937Z,17.55
2018-06-15T01:51:32.256Z,18.48
2018-06-15T01:54:05.653Z,19.20
2018-06-15T01:56:39.237Z,18.00
2018-06-15T01:59:12.593Z,24.40
2018-06-15T02:01:46.064Z,17.48
2018-06-15T02:04:19.389Z,18.52
2018-06-15T02:06:52.819Z,16.55
2018-06-15T02:09:26.309Z,17.37
2018-06-15T02:11:59.684Z,18.85
2018-06-15T02:14:32.976Z,17.05
2018-06-15T02:17:06.393Z,16.42
2018-06-15T02:19:39.913Z,18.92
2018-06-15T02:22:13.274Z,17.25
2018-06-15T02:24:46.628Z,18.55
2018-06-15T02:27:20.030Z,19.23
2018-06-15T02:29:53.478Z,17.52
2018-06-15T02:32:26.844Z,17.02
2018-06-15T02:35:00.189Z,19.87
2018-06-15T02:37:33.540Z,20.40
2018-06-15T02:40:06.882Z,19.35
2018-06-15T02:42:40.355Z,17.92
2018-06-15T02:45:13.741Z,18.15
2018-06-15T02:47:47.187Z,18.87
2018-06-15T02:50:21.605Z,20.32
2018-06-15T02:52:54.934Z,17.62
2018-06-15T02:55:28.380Z,19.82
2018-06-15T02:58:01.748Z,19.37
2018-06-15T03:00:35.068Z,27.50
2018-06-15T03:03:08.426Z,17.95
2018-06-15T03:05:41.740Z,20.50
2018-06-15T03:08:15.113Z,24.57
2018-06-15T03:10:48.491Z,22.62
2018-06-15T03:13:21.812Z,19.40
2018-06-15T03:15:55.233Z,22.25
2018-06-15T03:18:28.584Z,20.08
2018-06-15T03:21:01.947Z,19.70
2018-06-15T03:23:35.258Z,18.82
2018-06-15T03:26:08.593Z,21.33
2018-06-15T03:28:41.935Z,19.82
2018-06-15T03:31:15.285Z,20.72
2018-06-15T03:33:48.600Z,18.82
2018-06-15T03:36:21.918Z,18.25
2018-06-15T03:38:55.224Z,20.68
2018-06-15T03:41:28.725Z,18.20
2018-06-15T03:44:02.035Z,17.90
2018-06-15T03:46:36.001Z,18.65
2018-06-15T03:49:09.316Z,19.25
2018-06-15T03:51:42.666Z,19.25
2018-06-15T03:54:15.960Z,20.82
2018-06-15T03:56:49.303Z,21.35
2018-06-15T03:59:22.604Z,21.02
2018-06-15T04:01:55.953Z,20.82
2018-06-15T04:04:29.265Z,20.57
2018-06-15T04:07:02.606Z,17.95
2018-06-15T04:09:35.922Z,20.80
2018-06-15T04:12:09.277Z,20.45
2018-06-15T04:14:42.585Z,21.15
2018-06-15T04:17:17.001Z,21.17
2018-06-15T04:19:50.326Z,23.60
2018-06-15T04:22:23.656Z,20.72
2018-06-15T04:24:56.973Z,22.58
2018-06-15T04:27:30.369Z,21.95
2018-06-15T04:30:03.688Z,22.50
2018-06-15T04:32:37.045Z,23.62
2018-06-15T04:35:10.356Z,21.00
2018-06-15T04:37:43.668Z,26.05
2018-06-15T04:40:16.988Z,20.72
2018-06-15T04:42:50.337Z,22.20
2018-06-15T04:45:23.636Z,31.05
2018-06-15T04:47:57.070Z,28.27
2018-06-15T04:50:30.453Z,24.75
2018-06-15T04:53:03.768Z,26.42
2018-06-15T04:55:37.138Z,22.98
2018-06-15T04:58:10.471Z,22.87
2018-06-15T05:00:43.882Z,21.25
2018-06-15T05:03:17.230Z,26.57
2018-06-15T05:05:50.563Z,25.57
2018-06-15T05:08:23.892Z,21.23
2018-06-15T05:10:57.317Z,23.85
2018-06-15T05:13:30.664Z,21.23
2018-06-15T05:16:04.086Z,21.33
2018-06-15T05:18:37.458Z,19.73
2018-06-15T05:21:10.785Z,22.07
2018-06-15T05:23:44.217Z,20.92
2018-06-15T05:26:17.540Z,19.12
2018-06-15T05:28:50.856Z,19.48
2018-06-15T05:31:24.216Z,19.82
2018-06-15T05:33:57.681Z,16.15
2018-06-15T05:36:33.045Z,16.32
2018-06-15T05:39:08.748Z,19.80
2018-06-15T05:41:42.377Z,22.87
2018-06-15T05:44:15.754Z,18.40
2018-06-15T05:46:49.052Z,19.40
2018-06-15T05:49:22.408Z,17.77
2018-06-15T05:51:56.894Z,22.62
2018-06-15T05:54:30.225Z,18.23
2018-06-15T05:57:03.525Z,17.45
2018-06-15T05:59:36.884Z,20.30
2018-06-15T06:02:10.196Z,19.30
2018-06-15T06:04:43.554Z,16.02
2018-06-15T06:07:16.925Z,18.95
2018-06-15T06:09:50.278Z,17.05
2018-06-15T06:12:23.584Z,16.77
2018-06-15T06:14:56.914Z,16.00
2018-06-15T06:17:30.257Z,16.02
2018-06-15T06:20:03.689Z,12.73
2018-06-15T06:22:37.068Z,14.03
2018-06-15T06:25:10.392Z,13.98
2018-06-15T06:27:43.685Z,14.00
2018-06-15T06:30:17.027Z,14.68
2018-06-15T06:32:50.326Z,14.07
2018-06-15T06:35:23.645Z,12.90
2018-06-15T06:37:57.015Z,13.35
2018-06-15T06:40:30.315Z,13.78
2018-06-15T06:43:03.622Z,12.37
2018-06-15T06:45:36.937Z,10.72
2018-06-15T06:48:10.248Z,12.10
2018-06-15T06:50:43.571Z,8.73
2018-06-15T06:53:16.925Z,10.98
2018-06-15T06:55:50.273Z,10.35
2018-06-15T06:58:23.588Z,9.98
2018-06-15T07:00:57.080Z,8.65
2018-06-15T07:03:30.414Z,10.65
2018-06-15T07:06:03.740Z,9.25
2018-06-15T07:08:37.069Z,8.13
2018-06-15T07:11:10.468Z,8.03
2018-06-15T07:13:43.796Z,9.60
2018-06-15T07:16:17.156Z,10.18
2018-06-15T07:18:50.472Z,9.90
2018-06-15T07:21:23.815Z,9.43
2018-06-15T07:23:57.100Z,7.72
2018-06-15T07:26:30.440Z,8.05
2018-06-15T07:29:03.784Z,7.08
2018-06-15T07:31:37.096Z,7.00
2018-06-15T07:34:10.441Z,7.00
2018-06-15T07:36:43.766Z,7.05
2018-06-15T07:39:17.108Z,6.28
2018-06-15T07:41:50.444Z,5.83
2018-06-15T07:44:23.763Z,6.37
2018-06-15T07:46:57.190Z,6.12
2018-06-15T07:49:30.490Z,7.47
2018-06-15T07:52:03.813Z,6.37
2018-06-15T07:54:37.124Z,6.72
2018-06-15T07:57:10.456Z,6.12
2018-06-15T07:59:43.830Z,7.08
2018-06-15T08:02:17.080Z,6.20
2018-06-15T08:04:50.395Z,5.65
2018-06-15T08:07:23.715Z,6.53
2018-06-15T08:09:57.011Z,5.87
2018-06-15T08:12:30.328Z,4.70
2018-06-15T08:15:03.649Z,5.95
2018-06-15T08:17:37.005Z,5.42
2018-06-15T08:20:10.318Z,5.12
2018-06-15T08:22:43.641Z,4.28
2018-06-15T08:25:16.951Z,4.92
2018-06-15T08:27:50.296Z,4.50
2018-06-15T08:30:23.584Z,5.35
2018-06-15T08:32:56.980Z,4.97
2018-06-15T08:35:30.284Z,5.28
2018-06-15T08:38:03.611Z,4.83
2018-06-15T08:40:36.925Z,4.35
2018-06-15T08:43:10.244Z,5.10
2018-06-15T08:45:43.561Z,4.65
2018-06-15T08:48:16.949Z,3.85
2018-06-15T08:50:50.261Z,3.85
2018-06-15T08:53:23.589Z,4.50
2018-06-15T08:55:56.868Z,4.20
2018-06-15T08:58:30.222Z,4.20
2018-06-15T09:01:03.512Z,4.10
2018-06-15T09:03:36.809Z,3.83
2018-06-15T09:06:10.134Z,3.60
2018-06-15T09:08:43.454Z,3.98
2018-06-15T09:11:16.766Z,4.45
2018-06-15T09:13:50.076Z,3.92
2018-06-15T09:16:23.504Z,4.53
2018-06-15T09:18:56.834Z,3.98
2018-06-15T09:21:30.220Z,4.12
2018-06-15T09:24:03.535Z,3.25
2018-06-15T09:26:36.825Z,3.65
2018-06-15T09:29:10.125Z,4.40
2018-06-15T09:31:43.442Z,3.70
2018-06-15T09:34:16.756Z,3.95
2018-06-15T09:36:50.049Z,3.37
2018-06-15T09:39:23.423Z,3.60
2018-06-15T09:41:56.711Z,3.60
2018-06-15T09:44:30.084Z,3.50
2018-06-15T09:47:03.385Z,3.33
2018-06-15T09:49:36.716Z,3.33
2018-06-15T09:52:10.061Z,3.22
2018-06-15T09:54:43.408Z,2.83
2018-06-15T09:57:16.702Z,3.15
2018-06-15T09:59:50.032Z,2.87
2018-06-15T10:02:23.337Z,3.02
2018-06-15T10:04:56.648Z,2.85
2018-06-15T10:07:29.937Z,3.40
2018-06-15T10:10:03.275Z,3.00
2018-06-15T10:12:36.569Z,3.15
2018-06-15T10:15:09.889Z,3.47
2018-06-15T10:17:43.193Z,3.12
2018-06-15T10:20:16.519Z,3.12
2018-06-15T10:22:49.841Z,3.00
2018-06-15T10:25:23.151Z,3.17
2018-06-15T10:27:56.490Z,2.92
2018-06-15T10:30:29.832Z,4.92
2018-06-15T10:33:03.152Z,6.35
2018-06-15T10:35:36.486Z,5.12
2018-06-15T10:38:10.073Z,4.08
2018-06-15T10:40:43.383Z,3.58
2018-06-15T10:43:16.687Z,2.95
2018-06-15T10:45:50.018Z,3.00
2018-06-15T10:48:23.339Z,3.17
2018-06-15T10:50:56.652Z,3.37
2018-06-15T10:53:29.948Z,2.92
2018-06-15T10:56:03.250Z,2.80
2018-06-15T10:58:36.571Z,2.85
2018-06-15T11:01:09.896Z,3.17
2018-06-15T11:03:43.176Z,2.95
2018-06-15T11:06:16.485Z,2.75
2018-06-15T11:08:49.780Z,2.92
2018-06-15T11:11:23.132Z,2.85
2018-06-15T11:13:56.416Z,3.20
2018-06-15T11:16:29.728Z,3.20
2018-06-15T11:19:03.089Z,2.85
2018-06-15T11:21:36.418Z,3.05
2018-06-15T11:24:09.729Z,3.10
2018-06-15T11:26:49.645Z,3.15
2018-06-15T11:29:22.965Z,2.87
2018-06-15T11:31:56.274Z,3.20
2018-06-15T11:34:30.534Z,2.80
2018-06-15T11:37:03.859Z,2.35
2018-06-15T11:39:37.197Z,2.65
2018-06-15T11:42:10.493Z,2.60
2018-06-15T11:44:43.810Z,2.90
2018-06-15T11:47:17.117Z,2.65
2018-06-15T11:49:50.446Z,2.80
2018-06-15T11:52:23.748Z,2.85
2018-06-15T11:54:57.088Z,3.62
2018-06-15T11:57:30.543Z,3.02
2018-06-15T12:00:03.897Z,2.45
2018-06-15T12:02:37.192Z,2.58
2018-06-15T12:05:10.578Z,3.10
2018-06-15T12:07:43.887Z,2.40
2018-06-15T12:10:17.190Z,2.35
2018-06-15T12:12:50.525Z,2.77
2018-06-15T12:15:23.866Z,2.80
2018-06-15T12:17:57.192Z,2.58
2018-06-15T12:20:30.528Z,2.62
2018-06-15T12:23:03.832Z,2.33
2018-06-15T12:25:37.149Z,2.40
2018-06-15T12:28:10.792Z,2.95
2018-06-15T12:30:44.126Z,2.77
2018-06-15T12:33:17.439Z,2.95
2018-06-15T12:35:50.744Z,2.55
2018-06-15T12:38:24.280Z,2.52
2018-06-15T12:40:57.608Z,2.35
2018-06-15T12:43:30.945Z,2.87
2018-06-15T12:46:04.408Z,2.80
2018-06-15T12:48:37.596Z,3.10
2018-06-15T12:51:11.786Z,2.80
2018-06-15T12:53:47.174Z,2.50
2018-06-15T12:56:20.513Z,2.60
2018-06-15T12:58:53.808Z,2.67
2018-06-15T13:01:27.137Z,2.65
2018-06-15T13:04:00.432Z,2.83
2018-06-15T13:06:33.762Z,3.15
2018-06-15T13:09:08.374Z,3.25
2018-06-15T13:11:41.693Z,2.58
2018-06-15T13:14:15.001Z,2.72
2018-06-15T13:16:48.400Z,2.60
2018-06-15T13:19:21.704Z,2.65
2018-06-15T13:21:55.045Z,2.52
2018-06-15T13:24:32.443Z,2.90
2018-06-15T13:27:05.784Z,2.42
2018-06-15T13:29:39.089Z,2.30
2018-06-15T13:32:12.403Z,2.83
2018-06-15T13:34:45.701Z,2.87
2018-06-15T13:37:19.050Z,2.45
2018-06-15T13:39:52.429Z,2.72
2018-06-15T13:42:25.841Z,2.50
2018-06-15T13:44:59.734Z,2.87
2018-06-15T13:47:33.049Z,2.20
2018-06-15T13:50:06.345Z,2.90
2018-06-15T13:52:39.664Z,2.80
2018-06-15T13:55:12.968Z,2.87
2018-06-15T13:57:46.305Z,2.65
2018-06-15T14:00:19.633Z,2.80
2018-06-15T14:02:52.962Z,2.70
2018-06-15T14:05:26.265Z,2.75
2018-06-15T14:08:00.038Z,2.60
2018-06-15T14:10:33.360Z,2.60
2018-06-15T14:13:06.700Z,2.70
2018-06-15T14:15:40.057Z,2.90
2018-06-15T14:18:13.367Z,2.67
2018-06-15T14:20:46.716Z,2.70
2018-06-15T14:23:20.037Z,2.22
2018-06-15T14:25:53.420Z,2.75
2018-06-15T14:28:26.880Z,2.90
2018-06-15T14:31:02.519Z,2.52
2018-06-15T14:33:35.951Z,3.42
2018-06-15T14:36:09.830Z,2.35
2018-06-15T14:38:43.179Z,2.42
2018-06-15T14:41:16.489Z,2.75
2018-06-15T14:43:49.958Z,2.65
2018-06-15T14:46:23.252Z,2.25
2018-06-15T14:48:56.577Z,2.35
2018-06-15T14:51:29.938Z,2.80
2018-06-15T14:54:05.644Z,2.95
2018-06-15T14:56:39.119Z,2.55
2018-06-15T14:59:12.455Z,2.77
2018-06-15T15:01:47.001Z,2.70
2018-06-15T15:04:20.502Z,3.12
2018-06-15T15:06:53.898Z,2.22
2018-06-15T15:09:27.237Z,2.62
2018-06-15T15:12:01.501Z,2.95
2018-06-15T15:14:34.796Z,2.10
2018-06-15T15:17:08.446Z,2.72
2018-06-15T15:19:41.793Z,2.65
2018-06-15T15:22:15.144Z,2.60
2018-06-15T15:24:48.465Z,2.27
2018-06-15T15:27:21.825Z,2.80
2018-06-15T15:29:55.173Z,2.83
2018-06-15T15:32:28.521Z,2.77
2018-06-15T15:35:02.100Z,2.20
2018-06-15T15:37:35.434Z,2.40
2018-06-15T15:40:08.717Z,2.22
2018-06-15T15:42:42.032Z,2.52
2018-06-15T15:45:15.321Z,2.65
2018-06-15T15:47:48.633Z,2.50
2018-06-15T15:50:21.960Z,2.67
2018-06-15T15:52:55.268Z,2.92
2018-06-15T15:55:28.570Z,2.85
2018-06-15T15:58:02.929Z,2.77
2018-06-15T16:00:36.225Z,3.12
2018-06-15T16:03:09.550Z,2.70
2018-06-15T16:05:42.866Z,2.35
2018-06-15T16:08:16.220Z,2.40
2018-06-15T16:10:49.532Z,3.08
2018-06-15T16:13:23.530Z,2.80
2018-06-15T16:15:56.910Z,2.65
2018-06-15T16:18:30.968Z,2.87
2018-06-15T16:21:04.345Z,2.75
2018-06-15T16:23:38.509Z,2.65
2018-06-15T16:26:11.828Z,2.75
2018-06-15T16:28:45.176Z,2.65
2018-06-15T16:31:18.476Z,2.50
2018-06-15T16:33:51.829Z,2.50
2018-06-15T16:36:25.230Z,2.40
2018-06-15T16:38:58.827Z,2.25
2018-06-15T16:41:32.189Z,2.47
2018-06-15T16:44:05.597Z,2.52
2018-06-15T16:46:38.921Z,2.30
2018-06-15T16:49:12.246Z,3.15
2018-06-15T16:51:45.731Z,2.62
2018-06-15T16:54:19.147Z,2.47
2018-06-15T16:56:52.463Z,2.70
2018-06-15T16:59:25.781Z,2.60
2018-06-15T17:01:59.135Z,2.45
2018-06-15T17:04:32.449Z,2.52
2018-06-15T17:07:05.834Z,2.52
2018-06-15T17:09:39.387Z,2.70
2018-06-15T17:12:12.858Z,2.85
2018-06-15T17:14:46.193Z,3.05
2018-06-15T17:17:19.548Z,2.52
2018-06-15T17:19:52.948Z,2.80
2018-06-15T17:22:26.245Z,2.67
2018-06-15T17:25:00.552Z,2.45
2018-06-15T17:27:34.201Z,2.50
2018-06-15T17:30:07.636Z,2.50
2018-06-15T17:32:41.104Z,2.60
2018-06-15T17:35:14.436Z,2.90
2018-06-15T17:37:47.758Z,2.87
2018-06-15T17:40:21.131Z,2.45
2018-06-15T17:42:54.497Z,2.60
2018-06-15T17:45:27.826Z,2.98
2018-06-15T17:48:01.180Z,2.70
2018-06-15T17:50:34.566Z,2.62
2018-06-15T17:53:07.885Z,2.40
2018-06-15T17:55:41.282Z,2.67
2018-06-15T17:58:14.612Z,2.83
2018-06-15T18:00:47.973Z,2.92
2018-06-15T18:03:21.578Z,2.55
2018-06-15T18:05:54.980Z,2.83
2018-06-15T18:08:28.300Z,2.37
2018-06-15T18:11:02.420Z,2.17
2018-06-15T18:13:35.717Z,2.42
2018-06-15T18:16:09.057Z,2.90
2018-06-15T18:18:42.361Z,2.60
2018-06-15T18:21:15.720Z,2.58
2018-06-15T18:23:49.219Z,2.83
2018-06-15T18:26:22.556Z,2.70
2018-06-15T18:28:55.901Z,2.95
2018-06-15T18:31:29.252Z,2.87
2018-06-15T18:34:02.577Z,3.22
2018-06-15T18:36:35.908Z,2.98
2018-06-15T18:39:12.533Z,2.77
2018-06-15T18:41:45.908Z,3.00
2018-06-15T18:44:19.239Z,2.83
2018-06-15T18:46:52.554Z,2.45
2018-06-15T18:49:25.885Z,2.70
2018-06-15T18:51:59.185Z,2.62
2018-06-15T18:54:32.515Z,2.90
2018-06-15T18:57:06.281Z,2.62
2018-06-15T18:59:39.614Z,2.62
2018-06-15T19:02:12.924Z,2.35
2018-06-15T19:04:46.272Z,2.10
2018-06-15T19:07:19.587Z,2.12
2018-06-15T19:09:52.904Z,2.65
2018-06-15T19:12:27.296Z,2.40
2018-06-15T19:15:00.720Z,2.30
2018-06-15T19:17:34.040Z,2.17
2018-06-15T19:20:07.382Z,2.35
2018-06-15T19:22:40.773Z,2.22
2018-06-15T19:25:14.115Z,2.55
2018-06-15T19:27:47.416Z,2.30
2018-06-15T19:30:20.736Z,2.30
2018-06-15T19:32:54.050Z,2.75
2018-06-15T19:35:27.398Z,2.77
2018-06-15T19:38:02.749Z,2.60
2018-06-15T19:40:36.109Z,2.37
2018-06-15T19:43:09.528Z,2.45
2018-06-15T19:45:42.888Z,2.65
2018-06-15T19:48:16.216Z,2.50
2018-06-15T19:50:49.580Z,2.72
2018-06-15T19:53:22.905Z,2.47
2018-06-15T19:55:56.290Z,2.87
2018-06-15T19:58:30.949Z,2.40
2018-06-15T20:01:04.286Z,2.30
2018-06-15T20:03:37.651Z,2.40
2018-06-15T20:06:11.076Z,2.98
2018-06-15T20:08:44.405Z,2.33
2018-06-15T20:11:17.776Z,2.72
2018-06-15T20:13:51.086Z,2.58
2018-06-15T20:16:24.476Z,2.90
2018-06-15T20:18:57.821Z,2.62
2018-06-15T20:21:31.898Z,2.72
2018-06-15T20:24:05.220Z,2.60
2018-06-15T20:26:38.624Z,2.35
2018-06-15T20:29:12.243Z,2.50
2018-06-15T20:31:45.600Z,2.55
2018-06-15T20:34:19.031Z,2.52
2018-06-15T20:36:52.417Z,2.67
2018-06-15T20:39:25.728Z,2.50
2018-06-15T20:41:59.100Z,2.33
2018-06-15T20:44:32.395Z,2.85
2018-06-15T20:47:05.721Z,2.52
2018-06-15T20:49:39.055Z,2.20
2018-06-15T20:52:12.582Z,2.87
2018-06-15T20:54:55.657Z,2.80
2018-06-15T20:57:33.889Z,2.80
2018-06-15T21:00:07.236Z,2.47
2018-06-15T21:02:41.699Z,2.33
2018-06-15T21:05:15.153Z,2.70
2018-06-15T21:07:48.666Z,2.67
2018-06-15T21:10:22.211Z,2.40
2018-06-15T21:12:55.577Z,2.50
2018-06-15T21:15:29.053Z,2.45
2018-06-15T21:18:02.364Z,2.77
2018-06-15T21:20:35.668Z,2.52
2018-06-15T21:23:09.308Z,2.67
2018-06-15T21:25:42.685Z,2.90
2018-06-15T21:28:16.138Z,2.85
2018-06-15T21:30:49.492Z,2.70
2018-06-15T21:33:22.977Z,2.50
2018-06-15T21:35:56.481Z,2.77
2018-06-15T21:38:31.108Z,2.60
2018-06-15T21:41:04.396Z,2.92
2018-06-15T21:43:37.815Z,3.45
2018-06-15T21:46:11.253Z,2.85
2018-06-15T21:48:44.677Z,3.02
2018-06-15T21:51:18.121Z,2.90
2018-06-15T21:53:51.572Z,3.00
2018-06-15T21:56:25.192Z,2.58
2018-06-15T21:58:58.582Z,2.70
2018-06-15T22:01:31.927Z,2.58
2018-06-15T22:04:05.274Z,2.98
2018-06-15T22:06:39.000Z,2.67
2018-06-15T22:09:12.422Z,3.17
2018-06-15T22:11:45.747Z,2.67
2018-06-15T22:14:19.174Z,2.60
2018-06-15T22:16:53.327Z,2.70
2018-06-15T22:19:26.790Z,2.98
2018-06-15T22:22:00.117Z,2.75
2018-06-15T22:24:33.428Z,2.40
2018-06-15T22:27:06.891Z,2.60
2018-06-15T22:29:40.419Z,2.75
2018-06-15T22:32:13.941Z,2.77
2018-06-15T22:34:47.263Z,2.75
2018-06-15T22:37:20.641Z,2.37
2018-06-15T22:39:54.047Z,2.77
2018-06-15T22:42:27.341Z,2.30
2018-06-15T22:45:01.083Z,2.80
2018-06-15T22:47:34.393Z,2.80
2018-06-15T22:50:07.810Z,2.90
2018-06-15T22:52:41.229Z,2.70
2018-06-15T22:55:26.745Z,2.98
2018-06-15T22:58:00.168Z,2.40
2018-06-15T23:00:33.489Z,3.12
2018-06-15T23:03:06.926Z,2.67
2018-06-15T23:05:40.322Z,3.08
2018-06-15T23:08:13.657Z,2.87
2018-06-15T23:10:47.002Z,2.60
2018-06-15T23:13:20.409Z,3.08
2018-06-15T23:15:53.915Z,2.45
2018-06-15T23:18:32.947Z,3.02
2018-06-15T23:21:06.294Z,2.70
2018-06-15T23:23:39.911Z,2.50
2018-06-15T23:26:13.229Z,2.87
2018-06-15T23:28:46.632Z,2.42
2018-06-15T23:31:20.076Z,3.52
2018-06-15T23:33:53.521Z,2.95
2018-06-15T23:36:26.881Z,2.67
2018-06-15T23:39:00.228Z,2.60
2018-06-15T23:41:33.526Z,2.80
2018-06-15T23:44:07.056Z,2.80
2018-06-15T23:46:40.418Z,2.87
2018-06-15T23:49:13.757Z,2.77
2018-06-15T23:51:47.128Z,2.80
2018-06-15T23:54:20.477Z,2.72
2018-06-15T23:56:53.921Z,3.05
2018-06-15T23:59:27.348Z,2.77
